Terminal Aerodrome Forecast
Issued by NWS

Current Version | Previous Version | Graphics & Text | Print | Product List | Glossary On
Versions: 1 2 3 4 5 6 7 8 9 10 11 12 13 14 15 16 17 18 19 20 21 22 23 24 25 26 27 28
660
FTUS41 KRNK 050520
TAFLWB
TAF
KLWB 050520Z 0506/0606 VRB03KT 2SM -DZ BR SCT001 OVC006
      WS020/19035KT
      TEMPO 0508/0512 1SM BR BKN001
     FM051300 29006KT P6SM OVC020
     FM051700 30005KT P6SM SCT025 BKN250
     FM060100 00000KT P6SM BKN150 OVC250=

USA.gov is the U.S. government's official web portal to all federal, state and local government web resources and services.